sensor_id;sensor_type;location;lat;lon;timestamp;temperature;humidity
20973;DHT22;10645;52.370;13.314;2023-04-15T00:00:18;8.10;99.90
20973;DHT22;10645;52.370;13.314;2023-04-15T00:02:46;8.10;99.90
20973;DHT22;10645;52.370;13.314;2023-04-15T00:05:13;8.10;99.90
20973;DHT22;10645;52.370;13.314;2023-04-15T00:07:39;8.10;99.90
20973;DHT22;10645;52.370;13.314;2023-04-15T00:10:05;8.10;99.90
20973;DHT22;10645;52.370;13.314;2023-04-15T00:12:32;8.00;99.90
20973;DHT22;10645;52.370;13.314;2023-04-15T00:14:58;8.10;99.90
20973;DHT22;10645;52.370;13.314;2023-04-15T00:17:24;8.10;99.90
20973;DHT22;10645;52.370;13.314;2023-04-15T00:19:50;8.10;99.90
20973;DHT22;10645;52.370;13.314;2023-04-15T00:22:16;8.10;99.90
20973;DHT22;10645;52.370;13.314;2023-04-15T00:24:43;8.20;99.90
20973;DHT22;10645;52.370;13.314;2023-04-15T00:27:09;8.20;99.90
20973;DHT22;10645;52.370;13.314;2023-04-15T00:29:36;8.20;99.90
20973;DHT22;10645;52.370;13.314;2023-04-15T00:32:02;8.10;99.90
20973;DHT22;10645;52.370;13.314;2023-04-15T00:34:28;8.10;99.90
20973;DHT22;10645;52.370;13.314;2023-04-15T00:36:54;8.20;99.90
20973;DHT22;10645;52.370;13.314;2023-04-15T00:39:21;8.20;99.90
20973;DHT22;10645;52.370;13.314;2023-04-15T00:41:48;8.20;99.90
20973;DHT22;10645;52.370;13.314;2023-04-15T00:44:14;8.20;99.90
20973;DHT22;10645;52.370;13.314;2023-04-15T00:46:42;8.20;99.90
20973;DHT22;10645;52.370;13.314;2023-04-15T00:49:10;8.20;99.90
20973;DHT22;10645;52.370;13.314;2023-04-15T00:51:37;8.20;99.90
20973;DHT22;10645;52.370;13.314;2023-04-15T00:54:04;8.20;99.90
20973;DHT22;10645;52.370;13.314;2023-04-15T00:56:32;8.20;99.90
20973;DHT22;10645;52.370;13.314;2023-04-15T00:59:00;8.20;99.90
20973;DHT22;10645;52.370;13.314;2023-04-15T01:01:27;8.20;99.90
20973;DHT22;10645;52.370;13.314;2023-04-15T01:03:56;8.20;99.90
20973;DHT22;10645;52.370;13.314;2023-04-15T01:06:23;8.20;99.90
20973;DHT22;10645;52.370;13.314;2023-04-15T01:08:49;8.20;99.90
20973;DHT22;10645;52.370;13.314;2023-04-15T01:11:16;8.20;99.90
20973;DHT22;10645;52.370;13.314;2023-04-15T01:13:42;8.20;99.90
20973;DHT22;10645;52.370;13.314;2023-04-15T01:16:08;8.20;99.90
20973;DHT22;10645;52.370;13.314;2023-04-15T01:18:36;8.20;99.90
20973;DHT22;10645;52.370;13.314;2023-04-15T01:21:03;8.20;99.90
20973;DHT22;10645;52.370;13.314;2023-04-15T01:23:31;8.20;99.90
20973;DHT22;10645;52.370;13.314;2023-04-15T01:25:58;8.20;99.90
20973;DHT22;10645;52.370;13.314;2023-04-15T01:28:24;8.20;99.90
20973;DHT22;10645;52.370;13.314;2023-04-15T01:31:07;8.20;99.90
20973;DHT22;10645;52.370;13.314;2023-04-15T01:33:36;8.20;99.90
20973;DHT22;10645;52.370;13.314;2023-04-15T01:36:04;8.20;99.90
20973;DHT22;10645;52.370;13.314;2023-04-15T01:38:31;8.20;99.90
20973;DHT22;10645;52.370;13.314;2023-04-15T01:40:57;8.20;99.90
20973;DHT22;10645;52.370;13.314;2023-04-15T01:43:27;8.10;99.90
20973;DHT22;10645;52.370;13.314;2023-04-15T01:45:54;8.10;99.90
20973;DHT22;10645;52.370;13.314;2023-04-15T01:48:21;8.10;99.90
20973;DHT22;10645;52.370;13.314;2023-04-15T01:50:48;8.10;99.90
20973;DHT22;10645;52.370;13.314;2023-04-15T01:53:14;8.10;99.90
20973;DHT22;10645;52.370;13.314;2023-04-15T01:55:40;8.20;99.90
20973;DHT22;10645;52.370;13.314;2023-04-15T01:58:07;8.30;99.90
20973;DHT22;10645;52.370;13.314;2023-04-15T02:00:33;8.20;99.90
20973;DHT22;10645;52.370;13.314;2023-04-15T02:02:59;8.20;99.90
20973;DHT22;10645;52.370;13.314;2023-04-15T02:05:25;8.20;99.90
20973;DHT22;10645;52.370;13.314;2023-04-15T02:07:51;8.20;99.90
20973;DHT22;10645;52.370;13.314;2023-04-15T02:10:17;8.30;99.90
20973;DHT22;10645;52.370;13.314;2023-04-15T02:12:43;8.20;99.90
20973;DHT22;10645;52.370;13.314;2023-04-15T02:15:10;8.20;99.90
20973;DHT22;10645;52.370;13.314;2023-04-15T02:17:36;8.20;99.90
20973;DHT22;10645;52.370;13.314;2023-04-15T02:20:03;8.30;99.90
20973;DHT22;10645;52.370;13.314;2023-04-15T02:22:33;8.30;99.90
20973;DHT22;10645;52.370;13.314;2023-04-15T02:24:59;8.20;99.90
20973;DHT22;10645;52.370;13.314;2023-04-15T02:27:25;8.20;99.90
20973;DHT22;10645;52.370;13.314;2023-04-15T02:29:53;8.20;99.90
20973;DHT22;10645;52.370;13.314;2023-04-15T02:32:19;8.20;99.90
20973;DHT22;10645;52.370;13.314;2023-04-15T02:34:46;8.20;99.90
20973;DHT22;10645;52.370;13.314;2023-04-15T02:37:13;8.20;99.90
20973;DHT22;10645;52.370;13.314;2023-04-15T02:39:39;8.30;99.90
20973;DHT22;10645;52.370;13.314;2023-04-15T02:42:05;8.30;99.90
20973;DHT22;10645;52.370;13.314;2023-04-15T02:44:32;8.30;99.90
20973;DHT22;10645;52.370;13.314;2023-04-15T02:47:01;8.20;99.90
20973;DHT22;10645;52.370;13.314;2023-04-15T02:49:28;8.20;99.90
20973;DHT22;10645;52.370;13.314;2023-04-15T02:51:55;8.20;99.90
20973;DHT22;10645;52.370;13.314;2023-04-15T02:54:23;8.20;99.90
20973;DHT22;10645;52.370;13.314;2023-04-15T02:56:50;8.20;99.90
20973;DHT22;10645;52.370;13.314;2023-04-15T02:59:16;8.20;99.90
20973;DHT22;10645;52.370;13.314;2023-04-15T03:01:43;8.20;99.90
20973;DHT22;10645;52.370;13.314;2023-04-15T03:04:09;8.20;99.90
20973;DHT22;10645;52.370;13.314;2023-04-15T03:06:35;8.20;99.90
20973;DHT22;10645;52.370;13.314;2023-04-15T03:09:01;8.20;99.90
20973;DHT22;10645;52.370;13.314;2023-04-15T03:11:32;8.20;99.90
20973;DHT22;10645;52.370;13.314;2023-04-15T03:13:58;8.20;99.90
20973;DHT22;10645;52.370;13.314;2023-04-15T03:16:30;8.20;99.90
20973;DHT22;10645;52.370;13.314;2023-04-15T03:18:57;8.30;99.90
20973;DHT22;10645;52.370;13.314;2023-04-15T03:21:24;8.30;99.90
20973;DHT22;10645;52.370;13.314;2023-04-15T03:23:52;8.30;99.90
20973;DHT22;10645;52.370;13.314;2023-04-15T03:26:30;8.30;99.90
20973;DHT22;10645;52.370;13.314;2023-04-15T03:29:00;8.40;99.90
20973;DHT22;10645;52.370;13.314;2023-04-15T03:31:27;8.30;99.90
20973;DHT22;10645;52.370;13.314;2023-04-15T03:33:53;8.30;99.90
20973;DHT22;10645;52.370;13.314;2023-04-15T03:36:19;8.40;99.90
20973;DHT22;10645;52.370;13.314;2023-04-15T03:38:45;8.40;99.90
20973;DHT22;10645;52.370;13.314;2023-04-15T03:41:11;8.40;99.90
20973;DHT22;10645;52.370;13.314;2023-04-15T03:43:37;8.40;99.90
20973;DHT22;10645;52.370;13.314;2023-04-15T03:46:04;8.40;99.90
20973;DHT22;10645;52.370;13.314;2023-04-15T03:48:30;8.30;99.90
20973;DHT22;10645;52.370;13.314;2023-04-15T03:50:56;8.40;99.90
20973;DHT22;10645;52.370;13.314;2023-04-15T03:53:22;8.40;99.90
20973;DHT22;10645;52.370;13.314;2023-04-15T03:55:48;8.50;99.90
20973;DHT22;10645;52.370;13.314;2023-04-15T03:58:14;8.50;99.90
20973;DHT22;10645;52.370;13.314;2023-04-15T04:00:40;8.40;99.90
20973;DHT22;10645;52.370;13.314;2023-04-15T04:03:07;8.50;99.90
20973;DHT22;10645;52.370;13.314;2023-04-15T04:05:33;8.50;99.90
20973;DHT22;10645;52.370;13.314;2023-04-15T04:08:01;8.50;99.90
20973;DHT22;10645;52.370;13.314;2023-04-15T04:10:28;8.50;99.90
20973;DHT22;10645;52.370;13.314;2023-04-15T04:12:54;8.50;99.90
20973;DHT22;10645;52.370;13.314;2023-04-15T04:15:20;8.50;99.90
20973;DHT22;10645;52.370;13.314;2023-04-15T04:17:46;8.50;99.90
20973;DHT22;10645;52.370;13.314;2023-04-15T04:20:12;8.50;99.90
20973;DHT22;10645;52.370;13.314;2023-04-15T04:22:38;8.50;99.90
20973;DHT22;10645;52.370;13.314;2023-04-15T04:25:06;8.50;99.90
20973;DHT22;10645;52.370;13.314;2023-04-15T04:27:33;8.50;99.90
20973;DHT22;10645;52.370;13.314;2023-04-15T04:30:00;8.50;99.90
20973;DHT22;10645;52.370;13.314;2023-04-15T04:32:26;8.50;99.90
20973;DHT22;10645;52.370;13.314;2023-04-15T04:34:52;8.60;99.90
20973;DHT22;10645;52.370;13.314;2023-04-15T04:37:18;8.50;99.90
20973;DHT22;10645;52.370;13.314;2023-04-15T04:39:44;8.50;99.90
20973;DHT22;10645;52.370;13.314;2023-04-15T04:42:10;8.50;99.90
20973;DHT22;10645;52.370;13.314;2023-04-15T04:44:36;8.60;99.90
20973;DHT22;10645;52.370;13.314;2023-04-15T04:47:03;8.60;99.90
20973;DHT22;10645;52.370;13.314;2023-04-15T04:49:29;8.60;99.90
20973;DHT22;10645;52.370;13.314;2023-04-15T04:51:55;8.60;99.90
20973;DHT22;10645;52.370;13.314;2023-04-15T04:54:22;8.60;99.90
20973;DHT22;10645;52.370;13.314;2023-04-15T04:56:48;8.70;99.90
20973;DHT22;10645;52.370;13.314;2023-04-15T04:59:14;8.70;99.90
20973;DHT22;10645;52.370;13.314;2023-04-15T05:01:40;8.70;99.90
20973;DHT22;10645;52.370;13.314;2023-04-15T05:04:06;8.70;99.90
20973;DHT22;10645;52.370;13.314;2023-04-15T05:06:33;8.70;99.90
20973;DHT22;10645;52.370;13.314;2023-04-15T05:09:00;8.70;99.90
20973;DHT22;10645;52.370;13.314;2023-04-15T05:11:26;8.70;99.90
20973;DHT22;10645;52.370;13.314;2023-04-15T05:13:53;8.70;99.90
20973;DHT22;10645;52.370;13.314;2023-04-15T05:16:19;8.70;99.90
20973;DHT22;10645;52.370;13.314;2023-04-15T05:18:45;8.80;99.90
20973;DHT22;10645;52.370;13.314;2023-04-15T05:21:11;8.70;99.90
20973;DHT22;10645;52.370;13.314;2023-04-15T05:23:37;8.70;99.90
20973;DHT22;10645;52.370;13.314;2023-04-15T05:26:04;8.80;99.90
20973;DHT22;10645;52.370;13.314;2023-04-15T05:28:30;8.80;99.90
20973;DHT22;10645;52.370;13.314;2023-04-15T05:30:56;8.90;99.90
20973;DHT22;10645;52.370;13.314;2023-04-15T05:33:22;8.90;99.90
20973;DHT22;10645;52.370;13.314;2023-04-15T05:35:48;9.00;99.90
20973;DHT22;10645;52.370;13.314;2023-04-15T05:38:14;9.00;99.90
20973;DHT22;10645;52.370;13.314;2023-04-15T05:40:40;9.00;99.90
20973;DHT22;10645;52.370;13.314;2023-04-15T05:43:06;9.00;99.90
20973;DHT22;10645;52.370;13.314;2023-04-15T05:45:33;9.10;99.90
20973;DHT22;10645;52.370;13.314;2023-04-15T05:47:59;9.10;99.90
20973;DHT22;10645;52.370;13.314;2023-04-15T05:50:26;9.20;99.90
20973;DHT22;10645;52.370;13.314;2023-04-15T05:52:52;9.20;99.90
20973;DHT22;10645;52.370;13.314;2023-04-15T05:55:18;9.30;99.90
20973;DHT22;10645;52.370;13.314;2023-04-15T05:57:44;9.40;99.90
20973;DHT22;10645;52.370;13.314;2023-04-15T06:00:10;9.50;99.90
20973;DHT22;10645;52.370;13.314;2023-04-15T06:02:36;9.60;99.90
20973;DHT22;10645;52.370;13.314;2023-04-15T06:05:03;9.60;99.90
20973;DHT22;10645;52.370;13.314;2023-04-15T06:07:29;9.60;99.90
20973;DHT22;10645;52.370;13.314;2023-04-15T06:09:55;9.70;99.90
20973;DHT22;10645;52.370;13.314;2023-04-15T06:12:21;9.70;99.90
20973;DHT22;10645;52.370;13.314;2023-04-15T06:14:47;9.70;99.90
20973;DHT22;10645;52.370;13.314;2023-04-15T06:17:13;9.70;99.90
20973;DHT22;10645;52.370;13.314;2023-04-15T06:19:39;9.70;99.90
20973;DHT22;10645;52.370;13.314;2023-04-15T06:22:06;9.80;99.90
20973;DHT22;10645;52.370;13.314;2023-04-15T06:24:32;9.80;99.90
20973;DHT22;10645;52.370;13.314;2023-04-15T06:26:58;9.80;99.90
20973;DHT22;10645;52.370;13.314;2023-04-15T06:29:24;9.90;99.90
20973;DHT22;10645;52.370;13.314;2023-04-15T06:31:50;9.90;99.90
20973;DHT22;10645;52.370;13.314;2023-04-15T06:34:16;10.00;99.90
20973;DHT22;10645;52.370;13.314;2023-04-15T06:36:42;10.00;99.90
20973;DHT22;10645;52.370;13.314;2023-04-15T06:39:08;10.10;99.90
20973;DHT22;10645;52.370;13.314;2023-04-15T06:41:35;10.20;99.90
20973;DHT22;10645;52.370;13.314;2023-04-15T06:44:01;10.20;99.90
20973;DHT22;10645;52.370;13.314;2023-04-15T06:46:27;10.30;99.90
20973;DHT22;10645;52.370;13.314;2023-04-15T06:48:54;10.30;99.90
20973;DHT22;10645;52.370;13.314;2023-04-15T06:51:21;10.40;99.90
20973;DHT22;10645;52.370;13.314;2023-04-15T06:53:48;10.50;99.90
20973;DHT22;10645;52.370;13.314;2023-04-15T06:56:15;10.50;99.90
20973;DHT22;10645;52.370;13.314;2023-04-15T06:58:41;10.60;99.90
20973;DHT22;10645;52.370;13.314;2023-04-15T07:01:07;10.80;99.90
20973;DHT22;10645;52.370;13.314;2023-04-15T07:03:33;10.80;99.90
20973;DHT22;10645;52.370;13.314;2023-04-15T07:06:00;10.80;99.90
20973;DHT22;10645;52.370;13.314;2023-04-15T07:08:26;10.80;99.90
20973;DHT22;10645;52.370;13.314;2023-04-15T07:10:52;10.70;99.90
20973;DHT22;10645;52.370;13.314;2023-04-15T07:13:19;10.70;99.90
20973;DHT22;10645;52.370;13.314;2023-04-15T07:15:45;10.80;99.90
20973;DHT22;10645;52.370;13.314;2023-04-15T07:18:11;10.80;99.90
20973;DHT22;10645;52.370;13.314;2023-04-15T07:20:38;10.80;99.90
20973;DHT22;10645;52.370;13.314;2023-04-15T07:23:05;10.80;99.90
20973;DHT22;10645;52.370;13.314;2023-04-15T07:25:31;10.80;99.90
20973;DHT22;10645;52.370;13.314;2023-04-15T07:27:57;10.70;99.90
20973;DHT22;10645;52.370;13.314;2023-04-15T07:30:23;10.70;99.90
20973;DHT22;10645;52.370;13.314;2023-04-15T07:32:49;10.60;99.90
20973;DHT22;10645;52.370;13.314;2023-04-15T07:35:15;10.50;99.90
20973;DHT22;10645;52.370;13.314;2023-04-15T07:37:41;10.50;99.90
20973;DHT22;10645;52.370;13.314;2023-04-15T07:40:08;10.50;99.90
20973;DHT22;10645;52.370;13.314;2023-04-15T07:42:35;10.40;99.90
20973;DHT22;10645;52.370;13.314;2023-04-15T07:45:01;10.40;99.90
20973;DHT22;10645;52.370;13.314;2023-04-15T07:47:27;10.40;99.90
20973;DHT22;10645;52.370;13.314;2023-04-15T07:49:53;10.40;99.90
20973;DHT22;10645;52.370;13.314;2023-04-15T07:52:19;10.40;99.90
20973;DHT22;10645;52.370;13.314;2023-04-15T07:54:45;10.40;99.90
20973;DHT22;10645;52.370;13.314;2023-04-15T07:57:12;10.30;99.90
20973;DHT22;10645;52.370;13.314;2023-04-15T07:59:38;10.40;99.90
20973;DHT22;10645;52.370;13.314;2023-04-15T08:02:04;10.30;99.90
20973;DHT22;10645;52.370;13.314;2023-04-15T08:04:30;10.30;99.90
20973;DHT22;10645;52.370;13.314;2023-04-15T08:06:57;10.20;99.90
20973;DHT22;10645;52.370;13.314;2023-04-15T08:09:23;10.20;99.90
20973;DHT22;10645;52.370;13.314;2023-04-15T08:11:49;10.30;99.90
20973;DHT22;10645;52.370;13.314;2023-04-15T08:14:18;10.30;99.90
20973;DHT22;10645;52.370;13.314;2023-04-15T08:16:44;10.20;99.90
20973;DHT22;10645;52.370;13.314;2023-04-15T08:19:10;10.10;99.90
20973;DHT22;10645;52.370;13.314;2023-04-15T08:21:36;10.10;99.90
20973;DHT22;10645;52.370;13.314;2023-04-15T08:24:02;10.00;99.90
20973;DHT22;10645;52.370;13.314;2023-04-15T08:26:28;10.00;99.90
20973;DHT22;10645;52.370;13.314;2023-04-15T08:28:54;10.00;99.90
20973;DHT22;10645;52.370;13.314;2023-04-15T08:31:20;9.90;99.90
20973;DHT22;10645;52.370;13.314;2023-04-15T08:33:47;9.90;99.90
20973;DHT22;10645;52.370;13.314;2023-04-15T08:36:13;10.00;99.90
20973;DHT22;10645;52.370;13.314;2023-04-15T08:38:39;9.90;99.90
20973;DHT22;10645;52.370;13.314;2023-04-15T08:41:20;9.90;99.90
20973;DHT22;10645;52.370;13.314;2023-04-15T08:43:56;9.90;99.90
20973;DHT22;10645;52.370;13.314;2023-04-15T08:46:22;9.90;99.90
20973;DHT22;10645;52.370;13.314;2023-04-15T08:48:49;9.90;99.90
20973;DHT22;10645;52.370;13.314;2023-04-15T08:51:16;9.90;99.90
20973;DHT22;10645;52.370;13.314;2023-04-15T08:53:44;10.00;99.90
20973;DHT22;10645;52.370;13.314;2023-04-15T08:56:13;10.00;99.90
20973;DHT22;10645;52.370;13.314;2023-04-15T08:58:41;10.00;99.90
20973;DHT22;10645;52.370;13.314;2023-04-15T09:01:10;10.00;99.90
20973;DHT22;10645;52.370;13.314;2023-04-15T09:03:36;10.10;99.90
20973;DHT22;10645;52.370;13.314;2023-04-15T09:06:04;10.00;99.90
20973;DHT22;10645;52.370;13.314;2023-04-15T09:08:31;10.10;99.90
20973;DHT22;10645;52.370;13.314;2023-04-15T09:10:57;10.10;99.90
20973;DHT22;10645;52.370;13.314;2023-04-15T09:13:23;10.10;99.90
20973;DHT22;10645;52.370;13.314;2023-04-15T09:15:49;10.10;99.90
20973;DHT22;10645;52.370;13.314;2023-04-15T09:18:35;10.10;99.90
20973;DHT22;10645;52.370;13.314;2023-04-15T09:21:10;10.20;99.90
20973;DHT22;10645;52.370;13.314;2023-04-15T09:23:37;10.20;99.90
20973;DHT22;10645;52.370;13.314;2023-04-15T09:26:05;10.20;99.90
20973;DHT22;10645;52.370;13.314;2023-04-15T09:28:31;10.20;99.90
20973;DHT22;10645;52.370;13.314;2023-04-15T09:30:58;10.20;99.90
20973;DHT22;10645;52.370;13.314;2023-04-15T09:33:26;10.20;99.90
20973;DHT22;10645;52.370;13.314;2023-04-15T09:35:58;10.10;99.90
20973;DHT22;10645;52.370;13.314;2023-04-15T09:38:24;10.10;99.90
20973;DHT22;10645;52.370;13.314;2023-04-15T09:40:50;10.10;99.90
20973;DHT22;10645;52.370;13.314;2023-04-15T09:43:17;10.10;99.90
20973;DHT22;10645;52.370;13.314;2023-04-15T09:46:01;10.10;99.90
20973;DHT22;10645;52.370;13.314;2023-04-15T09:48:27;10.10;99.90
20973;DHT22;10645;52.370;13.314;2023-04-15T09:50:57;10.10;99.90
20973;DHT22;10645;52.370;13.314;2023-04-15T09:53:24;10.10;99.90
20973;DHT22;10645;52.370;13.314;2023-04-15T09:55:51;10.10;99.90
20973;DHT22;10645;52.370;13.314;2023-04-15T09:58:23;10.10;99.90
20973;DHT22;10645;52.370;13.314;2023-04-15T10:00:51;10.10;99.90
20973;DHT22;10645;52.370;13.314;2023-04-15T10:03:19;10.00;99.90
20973;DHT22;10645;52.370;13.314;2023-04-15T10:05:51;10.00;99.90
20973;DHT22;10645;52.370;13.314;2023-04-15T10:08:21;10.10;99.90
20973;DHT22;10645;52.370;13.314;2023-04-15T10:10:48;10.10;99.90
20973;DHT22;10645;52.370;13.314;2023-04-15T10:13:20;10.10;99.90
20973;DHT22;10645;52.370;13.314;2023-04-15T10:15:55;10.10;99.90
20973;DHT22;10645;52.370;13.314;2023-04-15T10:18:23;10.10;99.90
20973;DHT22;10645;52.370;13.314;2023-04-15T10:20:50;10.00;99.90
20973;DHT22;10645;52.370;13.314;2023-04-15T10:23:17;10.00;99.90
20973;DHT22;10645;52.370;13.314;2023-04-15T10:25:45;10.10;99.90
20973;DHT22;10645;52.370;13.314;2023-04-15T10:28:12;10.10;99.90
20973;DHT22;10645;52.370;13.314;2023-04-15T10:30:38;10.10;99.90
20973;DHT22;10645;52.370;13.314;2023-04-15T10:33:05;10.20;99.90
20973;DHT22;10645;52.370;13.314;2023-04-15T10:35:32;10.20;99.90
20973;DHT22;10645;52.370;13.314;2023-04-15T10:38:01;10.20;99.90
20973;DHT22;10645;52.370;13.314;2023-04-15T10:40:31;10.30;99.90
20973;DHT22;10645;52.370;13.314;2023-04-15T10:43:02;10.30;99.90
20973;DHT22;10645;52.370;13.314;2023-04-15T10:45:36;10.30;99.90
20973;DHT22;10645;52.370;13.314;2023-04-15T10:48:03;10.30;99.90
20973;DHT22;10645;52.370;13.314;2023-04-15T10:50:31;10.20;99.90
20973;DHT22;10645;52.370;13.314;2023-04-15T10:52:58;10.20;99.90
20973;DHT22;10645;52.370;13.314;2023-04-15T10:55:31;10.30;99.90
20973;DHT22;10645;52.370;13.314;2023-04-15T10:57:59;10.20;99.90
20973;DHT22;10645;52.370;13.314;2023-04-15T11:00:31;10.30;99.90
20973;DHT22;10645;52.370;13.314;2023-04-15T11:03:04;10.30;99.90
20973;DHT22;10645;52.370;13.314;2023-04-15T11:08:06;10.20;99.90
20973;DHT22;10645;52.370;13.314;2023-04-15T11:13:04;10.20;99.90
20973;DHT22;10645;52.370;13.314;2023-04-15T11:15:42;10.20;99.90
20973;DHT22;10645;52.370;13.314;2023-04-15T11:18:27;10.20;99.90
20973;DHT22;10645;52.370;13.314;2023-04-15T11:20:58;10.20;99.90
20973;DHT22;10645;52.370;13.314;2023-04-15T11:25:55;10.30;99.90
20973;DHT22;10645;52.370;13.314;2023-04-15T11:28:26;10.30;99.90
20973;DHT22;10645;52.370;13.314;2023-04-15T11:30:53;10.30;99.90
20973;DHT22;10645;52.370;13.314;2023-04-15T11:33:21;10.30;99.90
20973;DHT22;10645;52.370;13.314;2023-04-15T11:35:47;10.40;99.90
20973;DHT22;10645;52.370;13.314;2023-04-15T11:38:14;10.40;99.90
20973;DHT22;10645;52.370;13.314;2023-04-15T11:40:42;10.40;99.90
20973;DHT22;10645;52.370;13.314;2023-04-15T11:43:15;10.40;99.90
20973;DHT22;10645;52.370;13.314;2023-04-15T11:45:51;10.40;99.90
20973;DHT22;10645;52.370;13.314;2023-04-15T11:48:19;10.40;99.90
20973;DHT22;10645;52.370;13.314;2023-04-15T11:50:45;10.30;99.90
20973;DHT22;10645;52.370;13.314;2023-04-15T11:53:17;10.30;99.90
20973;DHT22;10645;52.370;13.314;2023-04-15T11:55:45;10.40;99.90
20973;DHT22;10645;52.370;13.314;2023-04-15T11:58:17;10.40;99.90
20973;DHT22;10645;52.370;13.314;2023-04-15T12:00:55;10.30;99.90
20973;DHT22;10645;52.370;13.314;2023-04-15T12:06:06;10.40;99.90
20973;DHT22;10645;52.370;13.314;2023-04-15T12:14:09;10.60;99.90
20973;DHT22;10645;52.370;13.314;2023-04-15T12:16:44;10.60;99.90
20973;DHT22;10645;52.370;13.314;2023-04-15T12:19:12;10.50;99.90
20973;DHT22;10645;52.370;13.314;2023-04-15T12:21:41;10.60;99.90
20973;DHT22;10645;52.370;13.314;2023-04-15T12:24:09;10.60;99.90
20973;DHT22;10645;52.370;13.314;2023-04-15T12:26:42;10.60;99.90
20973;DHT22;10645;52.370;13.314;2023-04-15T12:29:10;10.50;99.90
20973;DHT22;10645;52.370;13.314;2023-04-15T12:31:46;10.50;99.90
20973;DHT22;10645;52.370;13.314;2023-04-15T12:34:13;10.70;99.90
20973;DHT22;10645;52.370;13.314;2023-04-15T12:36:40;10.70;99.90
20973;DHT22;10645;52.370;13.314;2023-04-15T12:39:06;10.70;99.90
20973;DHT22;10645;52.370;13.314;2023-04-15T12:41:33;10.70;99.90
20973;DHT22;10645;52.370;13.314;2023-04-15T12:43:59;10.80;99.90
20973;DHT22;10645;52.370;13.314;2023-04-15T12:46:26;10.90;99.90
20973;DHT22;10645;52.370;13.314;2023-04-15T12:48:52;11.00;99.90
20973;DHT22;10645;52.370;13.314;2023-04-15T12:51:19;11.00;99.90
20973;DHT22;10645;52.370;13.314;2023-04-15T12:53:46;10.90;99.90
20973;DHT22;10645;52.370;13.314;2023-04-15T12:56:14;10.90;99.90
20973;DHT22;10645;52.370;13.314;2023-04-15T12:58:41;11.00;99.90
20973;DHT22;10645;52.370;13.314;2023-04-15T13:01:08;11.00;99.90
20973;DHT22;10645;52.370;13.314;2023-04-15T13:03:35;11.00;99.90
20973;DHT22;10645;52.370;13.314;2023-04-15T13:06:01;10.90;99.90
20973;DHT22;10645;52.370;13.314;2023-04-15T13:08:29;10.90;99.90
20973;DHT22;10645;52.370;13.314;2023-04-15T13:10:56;10.90;99.90
20973;DHT22;10645;52.370;13.314;2023-04-15T13:13:22;10.80;99.90
20973;DHT22;10645;52.370;13.314;2023-04-15T13:15:48;10.80;99.90
20973;DHT22;10645;52.370;13.314;2023-04-15T13:18:14;10.80;99.90
20973;DHT22;10645;52.370;13.314;2023-04-15T13:20:40;10.70;99.90
20973;DHT22;10645;52.370;13.314;2023-04-15T13:23:06;10.80;99.90
20973;DHT22;10645;52.370;13.314;2023-04-15T13:25:33;10.80;99.90
20973;DHT22;10645;52.370;13.314;2023-04-15T13:27:59;10.90;99.90
20973;DHT22;10645;52.370;13.314;2023-04-15T13:30:26;10.90;99.90
20973;DHT22;10645;52.370;13.314;2023-04-15T13:32:53;10.90;99.90
20973;DHT22;10645;52.370;13.314;2023-04-15T13:35:19;10.90;99.90
20973;DHT22;10645;52.370;13.314;2023-04-15T13:37:46;11.00;99.90
20973;DHT22;10645;52.370;13.314;2023-04-15T13:40:13;11.00;99.90
20973;DHT22;10645;52.370;13.314;2023-04-15T13:42:39;11.10;99.90
20973;DHT22;10645;52.370;13.314;2023-04-15T13:45:06;11.10;99.90
20973;DHT22;10645;52.370;13.314;2023-04-15T13:47:32;11.10;99.90
20973;DHT22;10645;52.370;13.314;2023-04-15T13:49:58;11.10;99.90
20973;DHT22;10645;52.370;13.314;2023-04-15T13:52:24;11.00;99.90
20973;DHT22;10645;52.370;13.314;2023-04-15T13:54:50;11.10;99.90
20973;DHT22;10645;52.370;13.314;2023-04-15T13:57:16;11.00;99.90
20973;DHT22;10645;52.370;13.314;2023-04-15T13:59:42;11.00;99.90
20973;DHT22;10645;52.370;13.314;2023-04-15T14:02:09;10.90;99.90
20973;DHT22;10645;52.370;13.314;2023-04-15T14:04:35;10.90;99.90
20973;DHT22;10645;52.370;13.314;2023-04-15T14:07:01;10.90;99.90
20973;DHT22;10645;52.370;13.314;2023-04-15T14:09:28;10.90;99.90
20973;DHT22;10645;52.370;13.314;2023-04-15T14:11:55;10.80;99.90
20973;DHT22;10645;52.370;13.314;2023-04-15T14:14:21;10.80;99.90
20973;DHT22;10645;52.370;13.314;2023-04-15T14:16:47;10.80;99.90
20973;DHT22;10645;52.370;13.314;2023-04-15T14:19:14;10.80;99.90
20973;DHT22;10645;52.370;13.314;2023-04-15T14:21:40;10.90;99.90
20973;DHT22;10645;52.370;13.314;2023-04-15T14:24:06;11.00;99.90
20973;DHT22;10645;52.370;13.314;2023-04-15T14:26:32;11.00;99.90
20973;DHT22;10645;52.370;13.314;2023-04-15T14:28:58;11.10;99.90
20973;DHT22;10645;52.370;13.314;2023-04-15T14:31:24;11.20;99.90
20973;DHT22;10645;52.370;13.314;2023-04-15T14:33:51;11.20;99.90
20973;DHT22;10645;52.370;13.314;2023-04-15T14:36:17;11.20;99.90
20973;DHT22;10645;52.370;13.314;2023-04-15T14:38:43;11.30;99.90
20973;DHT22;10645;52.370;13.314;2023-04-15T14:41:09;11.30;99.90
20973;DHT22;10645;52.370;13.314;2023-04-15T14:43:37;11.30;99.90
20973;DHT22;10645;52.370;13.314;2023-04-15T14:46:03;11.20;99.90
20973;DHT22;10645;52.370;13.314;2023-04-15T14:48:30;11.30;99.90
20973;DHT22;10645;52.370;13.314;2023-04-15T14:50:58;11.20;99.90
20973;DHT22;10645;52.370;13.314;2023-04-15T14:53:24;11.10;99.90
20973;DHT22;10645;52.370;13.314;2023-04-15T14:55:50;11.10;99.90
20973;DHT22;10645;52.370;13.314;2023-04-15T14:58:16;11.10;99.90
20973;DHT22;10645;52.370;13.314;2023-04-15T15:00:42;11.00;99.90
20973;DHT22;10645;52.370;13.314;2023-04-15T15:03:10;10.90;99.90
20973;DHT22;10645;52.370;13.314;2023-04-15T15:05:40;10.80;99.90
20973;DHT22;10645;52.370;13.314;2023-04-15T15:08:07;10.80;99.90
20973;DHT22;10645;52.370;13.314;2023-04-15T15:10:34;10.80;99.90
20973;DHT22;10645;52.370;13.314;2023-04-15T15:13:05;10.80;99.90
20973;DHT22;10645;52.370;13.314;2023-04-15T15:15:32;10.80;99.90
20973;DHT22;10645;52.370;13.314;2023-04-15T15:17:59;10.80;99.90
20973;DHT22;10645;52.370;13.314;2023-04-15T15:20:25;10.90;99.90
20973;DHT22;10645;52.370;13.314;2023-04-15T15:22:52;10.80;99.90
20973;DHT22;10645;52.370;13.314;2023-04-15T15:25:18;10.80;99.90
20973;DHT22;10645;52.370;13.314;2023-04-15T15:27:44;10.80;99.90
20973;DHT22;10645;52.370;13.314;2023-04-15T15:30:11;10.80;99.90
20973;DHT22;10645;52.370;13.314;2023-04-15T15:32:39;10.80;99.90
20973;DHT22;10645;52.370;13.314;2023-04-15T15:35:05;10.80;99.90
20973;DHT22;10645;52.370;13.314;2023-04-15T15:37:32;10.70;99.90